Time;durP1;ratioP1;P1;durP2;ratioP2;P2;SDS_P1;SDS_P2;PMS_P1;PMS_P2;Temp;Humidity;BMP_temperature;BMP_pressure;BME280_temperature;BME280_humidity;BME280_pressure;Samples;Min_cycle;Max_cycle;Signal;HPM_P1;HPM_P2
2022/10/08 00:00:47;;;;;;;2.43;0.50;;;;;;;6.34;100.00;100852.33;1739546;80;21844;-45
2022/10/08 00:03:14;;;;;;;5.07;0.60;;;;;;;6.31;100.00;100841.66;1732776;80;21116;-46
2022/10/08 00:05:40;;;;;;;3.20;0.70;;;;;;;6.31;100.00;100841.66;1743222;80;21072;-47
2022/10/08 00:08:07;;;;;;;3.47;0.40;;;;;;;6.29;100.00;100845.28;1741228;80;21582;-49
2022/10/08 00:10:34;;;;;;;3.33;0.50;;;;;;;6.25;100.00;100834.19;1740449;80;21084;-47
2022/10/08 00:13:02;;;;;;;6.47;0.50;;;;;;;6.24;100.00;100829.73;1738824;80;21543;-48
2022/10/08 00:15:35;;;;;;;5.77;0.57;;;;;;;6.25;100.00;100835.52;1740817;80;21041;-47
2022/10/08 00:18:03;;;;;;;4.67;0.63;;;;;;;6.25;100.00;100832.84;1747540;80;21042;-47
2022/10/08 00:20:29;;;;;;;1.70;0.60;;;;;;;6.27;100.00;100828.38;1735473;80;21512;-46
2022/10/08 00:22:55;;;;;;;5.30;0.80;;;;;;;6.27;100.00;100831.05;1743153;80;21052;-47
2022/10/08 00:25:22;;;;;;;2.03;0.50;;;;;;;6.25;100.00;100821.70;1742010;80;21922;-49
2022/10/08 00:27:49;;;;;;;5.43;0.50;;;;;;;6.23;100.00;100819.50;1739526;80;21158;-47
2022/10/08 00:30:16;;;;;;;1.83;0.50;;;;;;;6.21;100.00;100817.77;1739549;80;21035;-47
2022/10/08 00:32:43;;;;;;;8.47;0.60;;;;;;;6.20;100.00;100817.33;1735113;80;21068;-48
2022/10/08 00:35:11;;;;;;;6.17;0.50;;;;;;;6.18;100.00;100813.79;1737573;80;21120;-48
2022/10/08 00:37:38;;;;;;;1.27;0.50;;;;;;;6.16;100.00;100808.45;1738460;80;21940;-46
2022/10/08 00:40:06;;;;;;;4.30;0.40;;;;;;;6.15;100.00;100809.36;1749647;80;21066;-46
2022/10/08 00:42:33;;;;;;;3.27;0.40;;;;;;;6.14;100.00;100808.92;1752270;80;21034;-46
2022/10/08 00:45:00;;;;;;;1.67;0.70;;;;;;;6.13;100.00;100805.81;1749592;80;21541;-45
2022/10/08 00:47:35;;;;;;;6.30;0.97;;;;;;;6.13;100.00;100800.47;1754734;80;21093;-45
2022/10/08 00:50:27;;;;;;;3.27;0.60;;;;;;;6.12;100.00;100793.83;1750743;80;22856;-47
2022/10/08 00:53:02;;;;;;;2.23;0.60;;;;;;;6.12;100.00;100793.83;1749027;80;21150;-48
2022/10/08 00:55:28;;;;;;;0.90;0.50;;;;;;;6.12;100.00;100787.15;1752191;80;21034;-48
2022/10/08 00:58:00;;;;;;;2.77;0.40;;;;;;;6.11;100.00;100781.37;1751249;80;21371;-47
2022/10/08 01:00:27;;;;;;;1.00;0.40;;;;;;;6.08;100.00;100775.16;1751756;80;21509;-48
2022/10/08 01:02:53;;;;;;;5.53;0.93;;;;;;;6.05;100.00;100775.18;1749647;80;21884;-48
2022/10/08 01:05:44;;;;;;;2.83;0.40;;;;;;;6.03;100.00;100773.01;1751307;80;21046;-48
2022/10/08 01:08:40;;;;;;;5.73;0.40;;;;;;;6.02;100.00;100775.25;1756533;80;21168;-48
2022/10/08 01:11:18;;;;;;;4.07;0.60;;;;;;;5.99;100.00;100776.61;1755037;80;21517;-48
2022/10/08 01:14:11;;;;;;;2.80;0.40;;;;;;;5.98;100.00;100776.17;1748083;80;21603;-48
2022/10/08 01:16:49;;;;;;;3.63;0.40;;;;;;;5.98;100.00;100773.95;1750259;80;21799;-48
2022/10/08 01:19:27;;;;;;;2.87;0.50;;;;;;;5.99;100.00;100769.92;1689499;82;21444;-48
2022/10/08 01:22:17;;;;;;;1.33;0.50;;;;;;;5.98;100.00;100774.84;1749439;80;21092;-48
2022/10/08 01:27:44;;;;;;;3.47;0.47;;;;;;;5.95;100.00;100775.34;1748903;80;21031;-49
2022/10/08 01:30:15;;;;;;;4.63;0.40;;;;;;;5.94;100.00;100769.13;1751291;80;21846;-49
2022/10/08 01:32:55;;;;;;;3.10;0.50;;;;;;;5.91;100.00;100773.16;1753966;80;21053;-49
2022/10/08 01:35:29;;;;;;;5.63;0.50;;;;;;;5.87;100.00;100766.03;1752771;80;21062;-48
2022/10/08 01:37:58;;;;;;;6.40;0.53;;;;;;;5.84;100.00;100765.21;1753933;80;21077;-49
2022/10/08 01:40:31;;;;;;;0.80;0.30;;;;;;;5.81;100.00;100766.13;1760680;80;21073;-49
2022/10/08 01:42:58;;;;;;;2.00;0.30;;;;;;;5.78;100.00;100764.84;1756134;80;21841;-48
2022/10/08 01:45:31;;;;;;;2.43;0.33;;;;;;;5.77;100.00;100765.75;1762445;79;21041;-48
2022/10/08 01:47:58;;;;;;;10.13;0.40;;;;;;;5.75;100.00;100760.87;1760112;80;21077;-48
2022/10/08 01:50:31;;;;;;;2.77;0.40;;;;;;;5.73;100.00;100761.33;1762842;80;21440;-48
2022/10/08 01:53:01;;;;;;;2.87;0.40;;;;;;;5.72;100.00;100764.90;1761868;80;21038;-48
2022/10/08 01:55:39;;;;;;;2.47;0.40;;;;;;;5.73;100.00;100771.12;1738756;80;21861;-48
2022/10/08 01:58:10;;;;;;;0.77;0.40;;;;;;;5.72;100.00;100770.24;1763499;80;20995;-48
2022/10/08 02:00:37;;;;;;;0.90;0.50;;;;;;;5.73;100.00;100773.35;1762195;80;21437;-48
2022/10/08 02:03:03;;;;;;;1.23;0.50;;;;;;;5.72;100.00;100767.57;1759961;80;20970;-48
2022/10/08 02:05:32;;;;;;;1.20;0.50;;;;;;;5.71;100.00;100777.38;1763034;80;20991;-48
2022/10/08 02:08:00;;;;;;;2.60;0.40;;;;;;;5.70;100.00;100776.05;1760902;80;21781;-48
2022/10/08 02:10:28;;;;;;;3.23;0.40;;;;;;;5.67;100.00;100771.66;1764293;80;21458;-48
2022/10/08 02:12:54;;;;;;;3.03;0.50;;;;;;;5.67;100.00;100770.77;1760011;80;20986;-48
2022/10/08 02:15:58;;;;;;;1.93;0.60;;;;;;;5.66;100.00;100780.56;1764098;80;21021;-48
2022/10/08 02:18:41;;;;;;;3.67;0.60;;;;;;;5.65;100.00;100772.11;1768978;80;20974;-48
2022/10/08 02:21:11;;;;;;;1.67;0.30;;;;;;;5.68;100.00;100771.20;1760346;80;22440;-48
2022/10/08 02:23:45;;;;;;;7.30;0.40;;;;;;;5.69;100.00;100776.98;1754577;80;20947;-48
2022/10/08 02:26:16;;;;;;;2.10;0.43;;;;;;;5.71;100.00;100775.15;1759018;80;21112;-48
2022/10/08 02:28:51;;;;;;;3.70;0.40;;;;;;;5.72;100.00;100771.58;1724137;81;21062;-48
2022/10/08 02:31:27;;;;;;;2.55;0.47;;;;;;;5.73;100.00;100773.80;1755154;80;21302;-48
2022/10/08 02:34:20;;;;;;;2.80;0.50;;;;;;;5.70;100.00;100770.70;1756975;80;21806;-48
2022/10/08 02:36:52;;;;;;;5.07;0.97;;;;;;;5.67;100.00;100769.43;1762139;80;22197;-48
2022/10/08 02:39:18;;;;;;;2.57;0.50;;;;;;;5.64;100.00;100768.13;1749659;80;21332;-48
2022/10/08 02:41:50;;;;;;;4.00;0.57;;;;;;;5.62;100.00;100768.58;1738361;81;21045;-48
2022/10/08 02:44:28;;;;;;;4.67;0.50;;;;;;;5.59;100.00;100775.31;1742319;80;21084;-48
2022/10/08 02:46:56;;;;;;;1.30;0.50;;;;;;;5.57;100.00;100770.44;1737335;80;21853;-48
2022/10/08 02:49:27;;;;;;;5.10;0.90;;;;;;;5.56;100.00;100774.89;1735413;80;21135;-48
2022/10/08 02:51:53;;;;;;;4.33;0.40;;;;;;;5.56;100.00;100769.55;1734553;80;20993;-48
2022/10/08 02:54:21;;;;;;;5.07;0.70;;;;;;;5.58;100.00;100769.53;1739650;80;21069;-48
2022/10/08 02:56:55;;;;;;;7.00;0.50;;;;;;;5.59;100.00;100769.98;1733881;81;20999;-48
2022/10/08 02:59:22;;;;;;;6.33;1.20;;;;;;;5.59;100.00;100765.52;1739198;81;21748;-48
2022/10/08 03:01:54;;;;;;;1.33;0.80;;;;;;;5.62;100.00;100769.47;1733984;80;21045;-48
2022/10/08 03:04:53;;;;;;;3.60;0.40;;;;;;;5.62;100.00;100766.80;1735073;80;21018;-48
2022/10/08 03:07:21;;;;;;;6.40;0.50;;;;;;;5.62;100.00;100764.58;1733834;81;21645;-48
2022/10/08 03:09:48;;;;;;;0.70;0.47;;;;;;;5.62;100.00;100773.92;1736726;81;21108;-48
2022/10/08 03:12:15;;;;;;;1.47;0.50;;;;;;;5.61;100.00;100766.36;1735568;81;22721;-48
2022/10/08 03:14:45;;;;;;;7.50;0.67;;;;;;;5.60;100.00;100767.74;1737081;81;21117;-48
2022/10/08 03:17:14;;;;;;;2.43;0.50;;;;;;;5.58;100.00;100762.86;1740370;81;21069;-48
2022/10/08 03:19:41;;;;;;;2.03;0.40;;;;;;;5.57;100.00;100762.42;1731195;81;21443;-48
2022/10/08 03:22:08;;;;;;;4.93;0.73;;;;;;;5.55;100.00;100761.55;1740539;80;21526;-48
2022/10/08 03:24:35;;;;;;;0.83;0.40;;;;;;;5.54;100.00;100762.45;1737801;81;21940;-48
2022/10/08 03:27:02;;;;;;;2.47;0.40;;;;;;;5.55;100.00;100765.11;1735055;80;21052;-48
2022/10/08 03:29:29;;;;;;;5.43;0.40;;;;;;;5.55;100.00;100759.77;1740128;81;21891;-48
2022/10/08 03:31:55;;;;;;;1.00;0.50;;;;;;;5.57;100.00;100761.09;1735554;80;21045;-48
2022/10/08 03:34:24;;;;;;;2.53;1.00;;;;;;;5.59;100.00;100764.63;1741408;80;21088;-48
2022/10/08 03:36:50;;;;;;;1.13;0.50;;;;;;;5.61;100.00;100765.02;1740349;81;21792;-48
2022/10/08 03:39:17;;;;;;;2.63;0.50;;;;;;;5.62;100.00;100765.91;1735093;80;21045;-48
2022/10/08 03:41:43;;;;;;;4.27;0.50;;;;;;;5.62;100.00;100760.56;1758958;80;21450;-48
2022/10/08 03:44:11;;;;;;;7.73;0.50;;;;;;;5.61;100.00;100758.34;1755106;80;21092;-48
2022/10/08 03:46:38;;;;;;;5.17;0.47;;;;;;;5.59;100.00;100761.96;1760613;80;21496;-48
2022/10/08 03:49:04;;;;;;;3.53;1.13;;;;;;;5.56;100.00;100759.31;1761803;80;21808;-48
2022/10/08 03:51:31;;;;;;;1.40;0.50;;;;;;;5.54;100.00;100762.45;1755547;80;21067;-49
2022/10/08 03:53:57;;;;;;;4.70;0.50;;;;;;;5.51;100.00;100763.84;1759361;80;21105;-48
2022/10/08 03:56:24;;;;;;;1.93;0.50;;;;;;;5.48;100.00;100763.41;1757610;80;21598;-48
2022/10/08 03:58:57;;;;;;;4.20;0.77;;;;;;;5.49;100.00;100767.86;1758161;80;21143;-48
2022/10/08 04:01:24;;;;;;;3.10;0.60;;;;;;;5.50;100.00;100762.95;1758246;80;22904;-48
2022/10/08 04:03:51;;;;;;;4.43;0.50;;;;;;;5.49;100.00;100764.30;1758133;80;21097;-48
2022/10/08 04:06:17;;;;;;;6.40;0.67;;;;;;;5.49;100.00;100762.52;1758108;80;21049;-48
2022/10/08 04:08:45;;;;;;;2.93;0.60;;;;;;;5.48;100.00;100758.52;1757968;80;21514;-48
2022/10/08 04:11:14;;;;;;;0.90;0.60;;;;;;;5.50;100.00;100758.95;1757225;80;21534;-48
2022/10/08 04:13:41;;;;;;;3.07;0.70;;;;;;;5.51;100.00;100752.70;1757546;80;21834;-48
2022/10/08 04:16:14;;;;;;;5.40;0.60;;;;;;;5.54;100.00;100754.44;1761212;80;21093;-48
2022/10/08 04:18:40;;;;;;;4.27;0.60;;;;;;;5.54;100.00;100751.77;1760151;79;21069;-48
2022/10/08 04:21:11;;;;;;;1.30;0.70;;;;;;;5.55;100.00;100753.54;1760898;80;21053;-48
2022/10/08 04:23:39;;;;;;;4.37;0.60;;;;;;;5.56;100.00;100761.98;1755606;80;21653;-48
2022/10/08 04:26:05;;;;;;;7.03;1.47;;;;;;;5.55;100.00;100765.11;1758897;80;21948;-48
2022/10/08 04:28:35;;;;;;;1.60;0.80;;;;;;;5.56;100.00;100764.66;1761253;80;21082;-47
2022/10/08 04:31:06;;;;;;;3.47;1.10;;;;;;;5.56;100.00;100764.66;1755701;80;21785;-47
2022/10/08 04:33:34;;;;;;;9.67;1.30;;;;;;;5.55;100.00;100761.10;1717794;82;22125;-46
2022/10/08 04:36:00;;;;;;;13.47;0.90;;;;;;;5.57;100.00;100755.75;1761559;80;21037;-46
2022/10/08 04:38:27;;;;;;;6.03;1.00;;;;;;;5.59;100.00;100760.62;1762861;80;21954;-47
2022/10/08 04:41:06;;;;;;;3.50;0.97;;;;;;;5.62;100.00;100758.78;1760233;80;21088;-47
2022/10/08 04:43:34;;;;;;;5.37;0.90;;;;;;;5.66;100.00;100751.18;1757760;80;21105;-47
2022/10/08 04:46:01;;;;;;;4.13;0.70;;;;;;;5.71;100.00;100758.67;1761858;80;20978;-47
2022/10/08 04:48:27;;;;;;;6.57;0.87;;;;;;;5.75;100.00;100763.53;1763693;80;21519;-45
2022/10/08 04:50:59;;;;;;;3.33;0.70;;;;;;;5.79;100.00;100759.02;1764505;80;21781;-45
2022/10/08 04:53:26;;;;;;;2.97;1.00;;;;;;;5.82;100.00;100761.66;1763169;80;21551;-46
2022/10/08 04:55:53;;;;;;;3.80;1.00;;;;;;;5.85;100.00;100765.64;1755669;80;21086;-45
2022/10/08 04:58:19;;;;;;;5.40;1.00;;;;;;;5.87;100.00;100758.02;1764305;80;20962;-48
2022/10/08 05:00:46;;;;;;;4.03;1.30;;;;;;;5.91;100.00;100761.58;1758838;80;21606;-46
2022/10/08 05:03:12;;;;;;;2.00;0.90;;;;;;;5.94;100.00;100758.87;1758623;80;21814;-47
2022/10/08 05:05:42;;;;;;;5.30;1.13;;;;;;;5.98;100.00;100765.94;1760297;80;21005;-44
2022/10/08 05:08:08;;;;;;;3.50;0.90;;;;;;;6.04;100.00;100769.40;1760384;80;20962;-46
2022/10/08 05:10:36;;;;;;;5.40;0.80;;;;;;;6.12;100.00;100766.65;1757139;80;20972;-45
2022/10/08 05:13:04;;;;;;;31.07;1.60;;;;;;;6.23;100.00;100760.67;1761511;80;21512;-46
2022/10/08 05:15:33;;;;;;;8.93;1.43;;;;;;;6.39;100.00;100761.33;1759629;80;21736;-46
2022/10/08 05:18:01;;;;;;;7.10;1.10;;;;;;;6.58;100.00;100756.13;1760010;79;21464;-46
2022/10/08 05:20:28;;;;;;;9.87;0.90;;;;;;;6.79;100.00;100758.92;1764165;80;21041;-45
2022/10/08 05:22:56;;;;;;;81.20;3.60;;;;;;;7.01;100.00;100751.38;1758425;80;21018;-46
2022/10/08 05:25:23;;;;;;;66.03;5.27;;;;;;;7.25;100.00;100759.41;1759451;80;21088;-46
2022/10/08 05:27:49;;;;;;;65.50;3.57;;;;;;;7.47;100.00;100754.09;1758990;80;22936;-48
2022/10/08 05:30:16;;;;;;;21.87;2.80;;;;;;;7.68;100.00;100748.74;1757242;80;21559;-45
2022/10/08 05:32:43;;;;;;;19.87;2.27;;;;;;;7.87;100.00;100755.48;1758409;80;21041;-48
2022/10/08 05:35:09;;;;;;;10.35;1.17;;;;;;;8.07;100.00;100747.02;1756383;80;21145;-46
2022/10/08 05:37:36;;;;;;;11.38;0.98;;;;;;;8.28;100.00;100750.09;1755104;80;21081;-45
2022/10/08 05:40:03;;;;;;;4.70;0.80;;;;;;;8.51;100.00;100744.20;1754654;80;21882;-45
2022/10/08 05:42:30;;;;;;;4.90;0.80;;;;;;;8.73;100.00;100745.46;1736386;81;21050;-46
2022/10/08 05:44:56;;;;;;;8.45;1.65;;;;;;;8.94;100.00;100744.02;1732223;80;21527;-46
2022/10/08 05:47:22;;;;;;;5.35;1.10;;;;;;;9.14;100.00;100747.98;1733718;81;21404;-46
2022/10/08 05:49:49;;;;;;;6.90;0.80;;;;;;;9.32;100.00;100747.50;1732373;80;20996;-48
2022/10/08 05:52:15;;;;;;;2.92;0.70;;;;;;;9.52;100.00;100744.27;1730147;80;21928;-49
2022/10/08 05:54:42;;;;;;;3.27;0.70;;;;;;;9.70;100.00;100748.63;1731596;80;22412;-48
2022/10/08 05:57:08;;;;;;;5.72;0.82;;;;;;;9.88;100.00;100746.75;1734698;80;21122;-46
2022/10/08 05:59:34;;;;;;;3.40;0.90;;;;;;;10.04;100.00;100747.63;1731853;80;21068;-46
2022/10/08 06:02:01;;;;;;;2.20;0.90;;;;;;;10.17;100.00;100747.69;1732582;80;21673;-48
2022/10/08 06:04:27;;;;;;;2.08;0.82;;;;;;;10.30;100.00;100748.20;1732399;81;21942;-45
2022/10/08 06:06:53;;;;;;;6.42;0.82;;;;;;;10.42;100.00;100757.26;1736448;80;21056;-47
2022/10/08 06:09:20;;;;;;;3.55;0.72;;;;;;;10.53;100.00;100749.73;1735105;80;21048;-45
2022/10/08 06:11:47;;;;;;;4.50;0.80;;;;;;;10.62;100.00;100741.36;1729686;80;21077;-49
2022/10/08 06:14:19;;;;;;;3.52;0.90;;;;;;;10.72;100.00;100744.14;1730939;81;21353;-47
2022/10/08 06:16:44;;;;;;;2.40;0.72;;;;;;;10.81;100.00;100745.64;1732224;80;21804;-47
2022/10/08 06:19:11;;;;;;;5.05;1.22;;;;;;;10.89;100.00;100736.38;1733006;80;21139;-46
2022/10/08 06:21:38;;;;;;;3.70;0.70;;;;;;;11.00;100.00;100740.94;1733273;80;21109;-47
2022/10/08 06:24:06;;;;;;;3.58;0.80;;;;;;;11.13;100.00;100739.19;1736090;81;21578;-46
2022/10/08 06:26:36;;;;;;;2.17;0.80;;;;;;;11.25;100.00;100731.53;1733938;80;21075;-45
2022/10/08 06:29:05;;;;;;;6.50;1.25;;;;;;;11.35;100.00;100726.23;1732758;80;22513;-46
2022/10/08 06:31:34;;;;;;;4.25;1.10;;;;;;;11.48;100.00;100724.45;1734645;80;21103;-47
2022/10/08 06:34:02;;;;;;;5.58;0.90;;;;;;;11.58;100.00;100725.37;1731954;80;21688;-48
2022/10/08 06:36:29;;;;;;;4.28;0.93;;;;;;;11.67;100.00;100721.47;1729958;80;21288;-49
2022/10/08 06:38:57;;;;;;;6.20;0.80;;;;;;;11.76;100.00;100726.55;1732741;80;21081;-46
2022/10/08 06:41:24;;;;;;;4.78;1.00;;;;;;;11.85;100.00;100728.90;1738211;80;21872;-47
2022/10/08 06:43:51;;;;;;;4.62;1.22;;;;;;;11.93;100.00;100724.09;1747573;80;21014;-48
2022/10/08 06:46:18;;;;;;;4.28;0.70;;;;;;;12.02;100.00;100723.73;1745353;80;21085;-45
2022/10/08 06:48:45;;;;;;;1.15;0.70;;;;;;;12.12;100.00;100726.96;1751192;80;21031;-48
2022/10/08 06:51:14;;;;;;;2.58;0.80;;;;;;;12.23;100.00;100723.38;1745660;80;21029;-49
2022/10/08 06:53:42;;;;;;;3.52;0.90;;;;;;;12.33;100.00;100727.48;1748367;80;21849;-48
2022/10/08 06:56:13;;;;;;;3.52;0.72;;;;;;;12.44;100.00;100724.32;1744370;80;21458;-48
2022/10/08 06:58:40;;;;;;;3.65;0.75;;;;;;;12.54;100.00;100721.66;1744013;80;21082;-46
2022/10/08 07:01:19;;;;;;;1.45;0.70;;;;;;;12.64;100.00;100704.14;1746589;80;21296;-48
2022/10/08 07:03:52;;;;;;;3.60;0.53;;;;;;;12.72;100.00;100718.20;1746777;80;21014;-48
2022/10/08 07:06:18;;;;;;;1.10;0.60;;;;;;;12.84;100.00;100719.02;1749333;80;21841;-48
2022/10/08 07:08:45;;;;;;;2.75;0.60;;;;;;;12.93;100.00;100723.16;1753360;80;21294;-48
2022/10/08 07:11:14;;;;;;;2.75;0.70;;;;;;;13.01;100.00;100722.86;1749316;80;21501;-48
2022/10/08 07:13:40;;;;;;;5.45;0.80;;;;;;;13.10;100.00;100718.41;1750675;80;21539;-48
2022/10/08 07:16:12;;;;;;;5.45;0.50;;;;;;;13.21;100.00;100712.96;1748512;80;21535;-48
2022/10/08 07:18:41;;;;;;;3.72;0.70;;;;;;;13.32;100.00;100711.61;1750070;80;21504;-49
2022/10/08 07:21:10;;;;;;;6.08;0.60;;;;;;;13.42;100.00;100709.80;1749077;80;21127;-49
2022/10/08 07:23:36;;;;;;;1.25;0.60;;;;;;;13.54;100.00;100705.16;1742728;80;21362;-49
2022/10/08 07:26:08;;;;;;;4.92;0.53;;;;;;;13.64;100.00;100698.39;1748819;80;21512;-48
2022/10/08 07:28:38;;;;;;;1.37;0.50;;;;;;;13.77;100.00;100693.78;1743592;80;21668;-48
2022/10/08 07:31:07;;;;;;;2.40;0.60;;;;;;;13.86;100.00;100692.88;1746115;80;21411;-48
2022/10/08 07:33:34;;;;;;;1.35;0.42;;;;;;;13.96;100.00;100692.83;1748034;80;21086;-48
2022/10/08 07:36:16;;;;;;;2.62;0.30;;;;;;;14.07;100.00;100686.03;1750259;80;21043;-49
2022/10/08 07:38:43;;;;;;;0.60;0.35;;;;;;;14.14;100.00;100685.66;1745274;80;21053;-48
2022/10/08 07:41:11;;;;;;;5.78;0.50;;;;;;;14.24;100.00;100687.45;1745040;80;21517;-48
2022/10/08 07:43:40;;;;;;;3.20;0.40;;;;;;;14.33;100.00;100688.36;1751123;80;21846;-49
2022/10/08 07:46:07;;;;;;;2.33;0.45;;;;;;;14.41;100.00;100684.83;1751393;80;21077;-49
2022/10/08 07:48:35;;;;;;;2.58;0.40;;;;;;;14.47;100.00;100679.58;1754768;80;20977;-48
2022/10/08 07:51:14;;;;;;;1.82;0.50;;;;;;;14.53;100.00;100680.17;1759422;80;21051;-49
2022/10/08 07:53:41;;;;;;;3.33;0.68;;;;;;;14.63;100.00;100681.95;1752720;80;20956;-48
2022/10/08 07:56:08;;;;;;;1.90;0.50;;;;;;;14.69;100.00;100679.80;1753140;80;21851;-49
2022/10/08 07:58:35;;;;;;;1.80;0.40;;;;;;;14.79;100.00;100677.98;1754870;80;21009;-49
2022/10/08 08:01:02;;;;;;;1.92;0.40;;;;;;;14.88;100.00;100674.33;1753010;80;20983;-49
2022/10/08 08:03:29;;;;;;;4.53;0.40;;;;;;;14.97;100.00;100667.05;1749952;80;21010;-49
2022/10/08 08:06:11;;;;;;;4.40;0.40;;;;;;;15.08;100.00;100666.50;1753816;80;21492;-49
2022/10/08 08:08:39;;;;;;;1.27;0.40;;;;;;;15.18;100.00;100668.25;1752355;80;21807;-49
2022/10/08 08:11:07;;;;;;;1.12;0.40;;;;;;;15.27;100.00;100661.88;1754152;80;21140;-49
2022/10/08 08:13:36;;;;;;;1.85;0.57;;;;;;;15.34;100.00;100663.29;1756389;80;20959;-49
2022/10/08 08:16:06;;;;;;;0.72;0.33;;;;;;;15.41;100.00;100656.57;1754752;80;21032;-49
2022/10/08 08:18:38;;;;;;;3.30;0.40;;;;;;;15.48;100.00;100652.56;1716200;82;21007;-49
2022/10/08 08:21:11;;;;;;;1.20;0.30;;;;;;;15.54;100.00;100651.41;1721419;82;22402;-49
2022/10/08 08:23:40;;;;;;;0.70;0.40;;;;;;;15.59;100.00;100650.66;1750884;80;21466;-50
2022/10/08 08:26:13;;;;;;;4.53;0.60;;;;;;;15.65;100.00;100653.55;1750244;80;21498;-49
2022/10/08 08:28:40;;;;;;;0.82;0.40;;;;;;;15.68;100.00;100644.73;1751961;80;21069;-50
2022/10/08 08:31:17;;;;;;;1.80;0.30;;;;;;;15.73;100.00;100644.50;1749041;80;21480;-50
2022/10/08 08:33:50;;;;;;;4.15;0.40;;;;;;;15.77;100.00;100646.94;1751804;80;21761;-49
2022/10/08 08:36:17;;;;;;;2.80;0.50;;;;;;;15.83;100.00;100647.07;1752996;80;21677;-50
2022/10/08 08:38:45;;;;;;;2.70;0.35;;;;;;;15.88;100.00;100647.23;1750387;80;22262;-50
2022/10/08 08:41:46;;;;;;;5.55;0.40;;;;;;;15.95;100.00;100640.09;1751568;80;21021;-50
2022/10/08 08:44:19;;;;;;;1.35;0.40;;;;;;;16.00;100.00;100628.47;1758678;80;21065;-50
2022/10/08 08:47:13;;;;;;;1.67;0.42;;;;;;;16.05;100.00;100635.90;1729035;80;22526;-50
2022/10/08 08:49:44;;;;;;;0.70;0.35;;;;;;;16.07;100.00;100635.34;1759001;80;21049;-50
2022/10/08 08:52:15;;;;;;;4.73;0.60;;;;;;;16.12;100.00;100631.38;1757408;80;21097;-50
2022/10/08 08:54:46;;;;;;;3.12;0.40;;;;;;;16.15;100.00;100628.98;1758544;80;21030;-50
2022/10/08 08:57:45;;;;;;;3.83;0.60;;;;;;;16.16;100.00;100623.44;1758921;80;20968;-50
2022/10/08 09:00:22;;;;;;;2.80;0.33;;;;;;;16.19;100.00;100621.03;1755287;80;22049;-50
2022/10/08 09:03:14;;;;;;;1.90;0.40;;;;;;;16.23;100.00;100619.91;1753310;80;21107;-52
2022/10/08 09:05:44;;;;;;;1.10;0.37;;;;;;;16.28;100.00;100615.07;1753697;80;21587;-50
2022/10/08 09:08:18;;;;;;;1.52;0.45;;;;;;;16.34;100.00;100613.83;1754900;80;21356;-50
2022/10/08 09:11:01;;;;;;;0.80;0.40;;;;;;;16.38;100.00;100611.34;1754950;80;21041;-51
2022/10/08 09:13:51;;;;;;;1.80;0.40;;;;;;;16.43;100.00;100616.02;1756049;80;21842;-51
2022/10/08 09:16:18;;;;;;;1.57;0.40;;;;;;;16.46;100.00;100611.28;1759352;80;21077;-50
2022/10/08 09:18:50;;;;;;;1.37;0.40;;;;;;;16.50;100.00;100606.05;1754948;80;20998;-51
2022/10/08 09:21:17;;;;;;;1.35;0.40;;;;;;;16.50;100.00;100608.77;1752881;80;21102;-50
2022/10/08 09:23:45;;;;;;;4.12;0.78;;;;;;;16.43;100.00;100592.43;1759514;80;21047;-51
2022/10/08 09:26:23;;;;;;;1.00;0.40;;;;;;;16.40;100.00;100594.47;1754118;80;22805;-51
2022/10/08 09:29:00;;;;;;;2.22;0.50;;;;;;;16.43;100.00;100594.27;1754094;80;21080;-50
2022/10/08 09:31:41;;;;;;;4.40;0.53;;;;;;;16.46;100.00;100590.03;1758835;80;21155;-51
2022/10/08 09:34:16;;;;;;;2.72;0.80;;;;;;;16.51;100.00;100587.41;1754193;80;21053;-51
2022/10/08 09:37:04;;;;;;;1.95;0.90;;;;;;;16.52;100.00;100579.66;1754052;80;21049;-50
2022/10/08 09:39:34;;;;;;;1.15;0.40;;;;;;;16.55;100.00;100578.12;1742051;80;21874;-51
2022/10/08 09:42:13;;;;;;;1.50;0.50;;;;;;;16.59;100.00;100578.80;1734493;80;21375;-50
2022/10/08 09:44:55;;;;;;;2.60;0.30;;;;;;;16.64;100.00;100571.30;1766019;80;21107;-50
2022/10/08 09:47:22;;;;;;;3.75;0.50;;;;;;;16.69;100.00;100570.52;1762172;80;21159;-51
2022/10/08 09:50:11;;;;;;;0.78;0.40;;;;;;;16.74;100.00;100567.55;1766587;80;21077;-51
2022/10/08 09:52:39;;;;;;;1.55;0.40;;;;;;;16.78;100.00;100571.81;1760657;80;21953;-50
2022/10/08 09:56:27;;;;;;;0.82;0.40;;;;;;;16.85;100.00;100552.79;1794461;78;29084;-50
2022/10/08 09:58:57;;;;;;;1.12;0.37;;;;;;;16.84;100.00;100557.87;1775179;79;21043;-50
2022/10/08 10:01:24;;;;;;;1.50;0.80;;;;;;;16.82;100.00;100555.23;1766768;79;21778;-50
2022/10/08 10:03:55;;;;;;;1.70;0.42;;;;;;;16.82;100.00;100552.52;1770591;79;21041;-50
2022/10/08 10:06:36;;;;;;;3.33;0.60;;;;;;;16.82;100.00;100543.00;1770493;79;21558;-50
2022/10/08 10:09:26;;;;;;;1.95;0.50;;;;;;;16.84;100.00;100541.55;1777329;79;21693;-51
2022/10/08 10:11:57;;;;;;;1.02;0.40;;;;;;;16.89;100.00;100535.33;1772898;79;21491;-50
2022/10/08 10:14:42;;;;;;;0.60;0.40;;;;;;;16.93;100.00;100532.31;1776390;79;22465;-50
2022/10/08 10:17:14;;;;;;;0.80;0.30;;;;;;;16.95;100.00;100531.73;1769986;79;21017;-50
2022/10/08 10:19:48;;;;;;;4.08;0.33;;;;;;;17.00;100.00;100523.31;1777170;79;21325;-50
2022/10/08 10:22:20;;;;;;;1.32;0.40;;;;;;;17.04;100.00;100522.13;1777434;79;21053;-50
2022/10/08 10:25:38;;;;;;;5.22;0.40;;;;;;;17.05;100.00;100521.16;1778062;79;21132;-50
2022/10/08 10:28:37;;;;;;;1.60;0.30;;;;;;;17.07;100.00;100515.16;1776920;79;21903;-50
2022/10/08 10:31:17;;;;;;;0.82;0.37;;;;;;;17.11;100.00;100509.89;1781534;79;22265;-50
2022/10/08 10:33:57;;;;;;;2.12;0.30;;;;;;;17.16;100.00;100509.13;1774255;79;21056;-51
2022/10/08 10:36:27;;;;;;;0.80;0.40;;;;;;;17.21;100.00;100504.27;1765512;79;21060;-51
2022/10/08 10:39:11;;;;;;;0.62;0.30;;;;;;;17.22;100.00;100488.81;1775326;79;21076;-51
2022/10/08 10:41:47;;;;;;;3.25;0.30;;;;;;;17.22;100.00;100489.69;1774119;79;21546;-51
2022/10/08 10:44:16;;;;;;;0.70;0.40;;;;;;;17.26;100.00;100484.94;1720697;79;21108;-51
2022/10/08 10:46:48;;;;;;;2.05;0.30;;;;;;;17.31;100.00;100480.94;1747685;80;21665;-51
2022/10/08 10:49:21;;;;;;;2.47;0.40;;;;;;;17.34;100.00;100480.75;1773708;79;21082;-51
2022/10/08 10:52:32;;;;;;;2.80;0.30;;;;;;;17.37;100.00;100473.73;1776798;79;21732;-51
2022/10/08 10:55:17;;;;;;;0.40;0.30;;;;;;;17.41;100.00;100467.61;1742778;80;22153;-50
2022/10/08 10:58:09;;;;;;;0.40;0.30;;;;;;;17.45;100.00;100464.19;1760832;80;21045;-51
2022/10/08 11:01:08;;;;;;;2.70;0.40;;;;;;;17.48;100.00;100465.36;1768804;80;21038;-50
2022/10/08 11:04:09;;;;;;;2.02;0.30;;;;;;;17.53;100.00;100464.56;1765801;80;21005;-51
2022/10/08 11:06:53;;;;;;;7.05;0.40;;;;;;;17.56;100.00;100456.20;1770412;79;20978;-51
2022/10/08 11:09:38;;;;;;;1.70;0.28;;;;;;;17.60;100.00;100454.55;1772338;80;23067;-51
2022/10/08 11:12:21;;;;;;;2.53;0.33;;;;;;;17.63;100.00;100446.69;1775683;80;21394;-51
2022/10/08 11:15:08;;;;;;;1.00;0.30;;;;;;;17.64;100.00;100441.14;1734672;80;21069;-51
2022/10/08 11:17:46;;;;;;;0.47;0.30;;;;;;;17.66;100.00;100434.24;1768559;80;21014;-50
2022/10/08 11:20:36;;;;;;;0.80;0.30;;;;;;;17.68;100.00;100433.66;1770913;80;21010;-50
2022/10/08 11:23:21;;;;;;;0.40;0.20;;;;;;;17.70;100.00;100435.77;1770037;80;22416;-50
2022/10/08 11:26:05;;;;;;;0.33;0.20;;;;;;;17.73;100.00;100428.28;1769220;80;21450;-50
2022/10/08 11:28:51;;;;;;;0.47;0.20;;;;;;;17.75;100.00;100420.02;1748488;80;20982;-50
2022/10/08 11:31:43;;;;;;;0.65;0.30;;;;;;;17.77;100.00;100418.06;1771180;80;20977;-50
2022/10/08 11:34:20;;;;;;;2.08;0.30;;;;;;;17.80;100.00;100408.80;1731064;81;21065;-50
2022/10/08 11:37:20;;;;;;;1.67;0.30;;;;;;;17.80;100.00;100406.95;1768696;80;22495;-51
2022/10/08 11:40:01;;;;;;;0.65;0.30;;;;;;;17.80;100.00;100403.34;1773106;80;21117;-50
2022/10/08 11:42:36;;;;;;;7.28;0.40;;;;;;;17.78;100.00;100402.96;1767930;80;21090;-50
2022/10/08 11:45:26;;;;;;;5.70;0.40;;;;;;;17.80;100.00;100400.14;1774301;80;21512;-50
2022/10/08 11:47:54;;;;;;;0.45;0.30;;;;;;;17.82;100.00;100393.23;1770717;80;21052;-50
2022/10/08 11:50:30;;;;;;;3.58;0.30;;;;;;;17.84;100.00;100390.80;1765552;80;21805;-50